AAL422 KDCA-KMIA
Flight info
| Callsign | AAL422 |
|---|---|
| Flight time | 2h 11m |
| Altitude | 38000 |
| Route | AMEEE1 SCOOB EARZZ SKARP Y313 HOAGG BNFSH3 |
| Aircraft | B738/M-SDE2E3FGHIRWXY/LB1 |
Departure
| Time | 2026-04-22 22:02 |
|---|---|
| Airport | Ronald Reagan Washington National Airport (KDCA) |
Arrival
| Time | 2026-04-23 00:13 |
|---|---|
| Airport | Miami International Airport (KMIA) |
| Time | Latitude | Longitude | Altitude | Speed | Heading |
|---|---|---|---|---|---|
| 2026-04-22 21:45 | 38.85368 | -77.04107 | 23 ft | 0 kts | 327° |
| 2026-04-22 21:51 | 38.85356 | -77.04098 | 23 ft | 4 kts | 339° |
| 2026-04-22 21:51 | 38.85335 | -77.04089 | 23 ft | 4 kts | 351° |
| 2026-04-22 21:52 | 38.85311 | -77.04128 | 25 ft | 4 kts | 72° |
| 2026-04-22 21:52 | 38.85303 | -77.04161 | 23 ft | 4 kts | 72° |
| 2026-04-22 21:52 | 38.85299 | -77.04176 | 23 ft | 0 kts | 72° |
| 2026-04-22 21:57 | 38.85302 | -77.04166 | 23 ft | 6 kts | 72° |
| 2026-04-22 21:58 | 38.85319 | -77.04098 | 26 ft | 9 kts | 72° |
| 2026-04-22 21:58 | 38.85337 | -77.04027 | 23 ft | 8 kts | 71° |
| 2026-04-22 21:58 | 38.85387 | -77.04001 | 26 ft | 10 kts | 1° |
| 2026-04-22 21:58 | 38.85469 | -77.04009 | 25 ft | 12 kts | 353° |
| 2026-04-22 21:59 | 38.85549 | -77.04036 | 23 ft | 12 kts | 351° |
| 2026-04-22 21:59 | 38.85632 | -77.04043 | 27 ft | 12 kts | 356° |
| 2026-04-22 21:59 | 38.85712 | -77.04050 | 27 ft | 11 kts | 355° |
| 2026-04-22 21:59 | 38.85828 | -77.04062 | 25 ft | 23 kts | 355° |
| 2026-04-22 22:00 | 38.85936 | -77.04011 | 25 ft | 13 kts | 64° |
| 2026-04-22 22:00 | 38.85967 | -77.03971 | 23 ft | 0 kts | 26° |
| 2026-04-22 22:00 | 38.86047 | -77.03939 | 26 ft | 24 kts | 17° |
| 2026-04-22 22:01 | 38.86052 | -77.03863 | 24 ft | 9 kts | 177° |
| 2026-04-22 22:01 | 38.85891 | -77.03849 | 26 ft | 56 kts | 176° |
| 2026-04-22 22:01 | 38.85241 | -77.03783 | 23 ft | 128 kts | 175° |
| 2026-04-22 22:01 | 38.84167 | -77.03677 | 233 ft | 168 kts | 176° |
| 2026-04-22 22:02 | 38.83019 | -77.03563 | 1147 ft | 163 kts | 169° |
| 2026-04-22 22:02 | 38.81940 | -77.03146 | 2045 ft | 164 kts | 164° |
| 2026-04-22 22:02 | 38.80742 | -77.02911 | 2434 ft | 195 kts | 174° |
| 2026-04-22 22:02 | 38.79301 | -77.02656 | 2701 ft | 225 kts | 173° |
| 2026-04-22 22:03 | 38.77690 | -77.02333 | 3326 ft | 238 kts | 174° |
| 2026-04-22 22:03 | 38.76022 | -77.01983 | 4141 ft | 246 kts | 174° |
| 2026-04-22 22:03 | 38.74379 | -77.01183 | 4795 ft | 265 kts | 151° |
| 2026-04-22 22:03 | 38.72775 | -76.99792 | 4986 ft | 285 kts | 148° |
| 2026-04-22 22:04 | 38.71143 | -76.98311 | 5167 ft | 291 kts | 148° |
| 2026-04-22 22:04 | 38.69511 | -76.96827 | 6062 ft | 290 kts | 148° |
| 2026-04-22 22:04 | 38.67853 | -76.95329 | 6966 ft | 293 kts | 149° |
| 2026-04-22 22:04 | 38.66162 | -76.93818 | 7822 ft | 298 kts | 149° |
| 2026-04-22 22:05 | 38.64472 | -76.92315 | 8605 ft | 303 kts | 149° |
| 2026-04-22 22:05 | 38.62719 | -76.90761 | 9418 ft | 310 kts | 150° |
| 2026-04-22 22:05 | 38.60940 | -76.89181 | 10250 ft | 312 kts | 149° |
| 2026-04-22 22:05 | 38.59151 | -76.87605 | 10960 ft | 318 kts | 148° |
| 2026-04-22 22:06 | 38.57310 | -76.85987 | 11716 ft | 323 kts | 148° |
| 2026-04-22 22:06 | 38.55446 | -76.84347 | 12467 ft | 327 kts | 147° |
| 2026-04-22 22:06 | 38.53549 | -76.82665 | 13034 ft | 338 kts | 147° |
| 2026-04-22 22:06 | 38.51572 | -76.80900 | 13215 ft | 362 kts | 147° |
| 2026-04-22 22:07 | 38.49455 | -76.79003 | 13520 ft | 379 kts | 147° |
| 2026-04-22 22:07 | 38.47274 | -76.77050 | 14132 ft | 386 kts | 147° |
| 2026-04-22 22:07 | 38.45061 | -76.75071 | 14856 ft | 388 kts | 146° |
| 2026-04-22 22:07 | 38.43590 | -76.73757 | 15349 ft | 390 kts | 147° |
| 2026-04-22 22:08 | 38.41284 | -76.71868 | 15997 ft | 393 kts | 157° |
| 2026-04-22 22:08 | 38.38675 | -76.70900 | 16634 ft | 390 kts | 175° |
| 2026-04-22 22:08 | 38.36004 | -76.70459 | 17311 ft | 392 kts | 177° |
| 2026-04-22 22:08 | 38.33273 | -76.70064 | 17898 ft | 397 kts | 177° |
| 2026-04-22 22:09 | 38.30507 | -76.69667 | 18499 ft | 401 kts | 177° |
| 2026-04-22 22:09 | 38.27715 | -76.69249 | 19119 ft | 405 kts | 176° |
| 2026-04-22 22:09 | 38.24907 | -76.68812 | 19735 ft | 407 kts | 176° |
| 2026-04-22 22:09 | 38.22080 | -76.68361 | 20296 ft | 411 kts | 176° |
| 2026-04-22 22:10 | 38.19224 | -76.67902 | 20837 ft | 415 kts | 176° |
| 2026-04-22 22:10 | 38.16349 | -76.67438 | 21381 ft | 418 kts | 177° |
| 2026-04-22 22:10 | 38.13492 | -76.66980 | 21885 ft | 422 kts | 177° |
| 2026-04-22 22:10 | 38.10558 | -76.66509 | 22413 ft | 425 kts | 177° |
| 2026-04-22 22:11 | 38.07608 | -76.66131 | 22903 ft | 426 kts | 180° |
| 2026-04-22 22:11 | 38.04632 | -76.65907 | 23399 ft | 428 kts | 182° |
| 2026-04-22 22:11 | 38.01643 | -76.65743 | 23865 ft | 431 kts | 182° |
| 2026-04-22 22:11 | 37.98674 | -76.65589 | 24326 ft | 434 kts | 182° |
| 2026-04-22 22:12 | 37.95646 | -76.65420 | 24802 ft | 436 kts | 182° |
| 2026-04-22 22:12 | 37.92607 | -76.65236 | 25232 ft | 439 kts | 182° |
| 2026-04-22 22:12 | 37.89546 | -76.65039 | 25623 ft | 443 kts | 181° |
| 2026-04-22 22:12 | 37.86460 | -76.64834 | 26023 ft | 446 kts | 181° |
| 2026-04-22 22:13 | 37.83342 | -76.64624 | 26425 ft | 448 kts | 181° |
| 2026-04-22 22:13 | 37.80213 | -76.64412 | 26813 ft | 451 kts | 181° |
| 2026-04-22 22:13 | 37.77074 | -76.64200 | 27198 ft | 453 kts | 181° |
| 2026-04-22 22:13 | 37.73908 | -76.63987 | 27538 ft | 457 kts | 181° |
| 2026-04-22 22:14 | 37.70760 | -76.63776 | 27869 ft | 460 kts | 181° |
| 2026-04-22 22:14 | 37.67553 | -76.63560 | 28196 ft | 462 kts | 181° |
| 2026-04-22 22:14 | 37.64319 | -76.63343 | 28520 ft | 465 kts | 181° |
| 2026-04-22 22:14 | 37.61082 | -76.63127 | 28857 ft | 467 kts | 181° |
| 2026-04-22 22:15 | 37.57829 | -76.63016 | 29161 ft | 466 kts | 187° |
| 2026-04-22 22:15 | 37.54589 | -76.63319 | 29467 ft | 466 kts | 191° |
| 2026-04-22 22:15 | 37.51416 | -76.63782 | 29771 ft | 466 kts | 192° |
| 2026-04-22 22:15 | 37.48222 | -76.64306 | 30047 ft | 469 kts | 192° |
| 2026-04-22 22:16 | 37.44974 | -76.64838 | 30320 ft | 471 kts | 192° |
| 2026-04-22 22:16 | 37.41705 | -76.65350 | 30568 ft | 474 kts | 191° |
| 2026-04-22 22:16 | 37.38425 | -76.65838 | 30834 ft | 476 kts | 191° |
| 2026-04-22 22:16 | 37.35122 | -76.66307 | 31168 ft | 476 kts | 191° |
| 2026-04-22 22:17 | 37.31836 | -76.66760 | 31532 ft | 475 kts | 191° |
| 2026-04-22 22:17 | 37.28588 | -76.67200 | 31864 ft | 475 kts | 191° |
| 2026-04-22 22:17 | 37.25298 | -76.67645 | 32175 ft | 475 kts | 190° |
| 2026-04-22 22:17 | 37.22001 | -76.68090 | 32496 ft | 474 kts | 190° |
| 2026-04-22 22:18 | 37.18724 | -76.68534 | 32791 ft | 474 kts | 190° |
| 2026-04-22 22:18 | 37.15435 | -76.68979 | 33085 ft | 474 kts | 190° |
| 2026-04-22 22:18 | 37.12162 | -76.69423 | 33381 ft | 474 kts | 190° |
| 2026-04-22 22:18 | 37.08877 | -76.69868 | 33699 ft | 473 kts | 190° |
| 2026-04-22 22:19 | 37.05644 | -76.70306 | 33971 ft | 473 kts | 190° |
| 2026-04-22 22:19 | 37.02371 | -76.70750 | 34195 ft | 473 kts | 190° |
| 2026-04-22 22:19 | 36.99083 | -76.71195 | 34495 ft | 472 kts | 190° |
| 2026-04-22 22:19 | 36.95820 | -76.71636 | 34856 ft | 469 kts | 190° |
| 2026-04-22 22:20 | 36.92616 | -76.72068 | 35142 ft | 468 kts | 190° |
| 2026-04-22 22:20 | 36.89375 | -76.72505 | 35373 ft | 468 kts | 190° |
| 2026-04-22 22:20 | 36.86137 | -76.72943 | 35631 ft | 468 kts | 190° |
| 2026-04-22 22:20 | 36.82903 | -76.73378 | 35926 ft | 466 kts | 190° |
| 2026-04-22 22:21 | 36.79670 | -76.73813 | 36179 ft | 465 kts | 191° |
| 2026-04-22 22:21 | 36.76445 | -76.74246 | 36401 ft | 465 kts | 191° |
| 2026-04-22 22:21 | 36.73223 | -76.74679 | 36636 ft | 464 kts | 191° |
| 2026-04-22 22:21 | 36.70051 | -76.75106 | 36859 ft | 463 kts | 191° |
| 2026-04-22 22:22 | 36.66855 | -76.75535 | 37230 ft | 458 kts | 191° |
| 2026-04-22 22:22 | 36.63694 | -76.75958 | 37586 ft | 454 kts | 191° |
| 2026-04-22 22:22 | 36.60565 | -76.76376 | 37883 ft | 451 kts | 191° |
| 2026-04-22 22:22 | 36.57436 | -76.76795 | 38012 ft | 452 kts | 191° |
| 2026-04-22 22:23 | 36.54282 | -76.77219 | 38053 ft | 454 kts | 191° |
| 2026-04-22 22:23 | 36.48005 | -76.78060 | 38065 ft | 456 kts | 191° |
| 2026-04-22 22:24 | 36.41689 | -76.78901 | 38052 ft | 454 kts | 191° |
| 2026-04-22 22:24 | 36.35454 | -76.79731 | 38052 ft | 452 kts | 191° |
| 2026-04-22 22:25 | 36.29219 | -76.80559 | 38053 ft | 450 kts | 191° |
| 2026-04-22 22:25 | 36.22994 | -76.81385 | 38056 ft | 449 kts | 191° |
| 2026-04-22 22:26 | 36.16766 | -76.82211 | 38063 ft | 448 kts | 191° |
| 2026-04-22 22:26 | 36.10565 | -76.83032 | 38067 ft | 448 kts | 191° |
| 2026-04-22 22:27 | 36.04390 | -76.83849 | 38064 ft | 449 kts | 191° |
| 2026-04-22 22:27 | 35.98160 | -76.84670 | 38067 ft | 450 kts | 191° |
| 2026-04-22 22:28 | 35.91922 | -76.85511 | 38065 ft | 449 kts | 193° |
| 2026-04-22 22:28 | 35.85954 | -76.87476 | 38069 ft | 442 kts | 203° |
| 2026-04-22 22:29 | 35.80106 | -76.89864 | 38072 ft | 442 kts | 204° |
| 2026-04-22 22:29 | 35.74286 | -76.92222 | 38067 ft | 443 kts | 203° |
| 2026-04-22 22:30 | 35.68407 | -76.94558 | 38073 ft | 443 kts | 203° |
| 2026-04-22 22:30 | 35.62523 | -76.96873 | 38071 ft | 443 kts | 203° |
| 2026-04-22 22:31 | 35.56642 | -76.99181 | 38081 ft | 443 kts | 203° |
| 2026-04-22 22:31 | 35.50797 | -77.01473 | 38070 ft | 443 kts | 203° |
| 2026-04-22 22:32 | 35.44916 | -77.03775 | 38076 ft | 443 kts | 203° |
| 2026-04-22 22:32 | 35.39035 | -77.06073 | 38076 ft | 443 kts | 203° |
| 2026-04-22 22:33 | 35.33158 | -77.08368 | 38079 ft | 442 kts | 203° |
| 2026-04-22 22:33 | 35.27327 | -77.10641 | 38082 ft | 442 kts | 203° |
| 2026-04-22 22:34 | 35.21470 | -77.12920 | 38089 ft | 441 kts | 203° |
| 2026-04-22 22:34 | 35.15605 | -77.15199 | 38093 ft | 440 kts | 203° |
| 2026-04-22 22:35 | 35.09793 | -77.17455 | 38098 ft | 440 kts | 203° |
| 2026-04-22 22:35 | 35.03960 | -77.19715 | 38103 ft | 439 kts | 203° |
| 2026-04-22 22:36 | 34.98122 | -77.21973 | 38101 ft | 439 kts | 203° |
| 2026-04-22 22:36 | 34.92315 | -77.24217 | 38106 ft | 439 kts | 203° |
| 2026-04-22 22:37 | 34.86483 | -77.26468 | 38113 ft | 439 kts | 203° |
| 2026-04-22 22:37 | 34.80650 | -77.28715 | 38122 ft | 439 kts | 202° |
| 2026-04-22 22:38 | 34.74843 | -77.30946 | 38122 ft | 440 kts | 202° |
| 2026-04-22 22:38 | 34.69000 | -77.33190 | 38120 ft | 440 kts | 202° |
| 2026-04-22 22:39 | 34.63161 | -77.35429 | 38120 ft | 440 kts | 202° |
| 2026-04-22 22:39 | 34.57293 | -77.37676 | 38118 ft | 440 kts | 202° |
| 2026-04-22 22:40 | 34.51436 | -77.39916 | 38129 ft | 441 kts | 202° |
| 2026-04-22 22:40 | 34.45509 | -77.41771 | 38133 ft | 445 kts | 195° |
| 2026-04-22 22:41 | 34.39352 | -77.42937 | 38128 ft | 447 kts | 193° |
| 2026-04-22 22:41 | 34.33238 | -77.44047 | 38129 ft | 447 kts | 193° |
| 2026-04-22 22:42 | 34.27102 | -77.45212 | 38130 ft | 446 kts | 194° |
| 2026-04-22 22:42 | 34.20952 | -77.46410 | 38134 ft | 446 kts | 194° |
| 2026-04-22 22:43 | 34.14849 | -77.47604 | 38133 ft | 446 kts | 194° |
| 2026-04-22 22:43 | 34.08717 | -77.48800 | 38147 ft | 445 kts | 194° |
| 2026-04-22 22:44 | 34.02576 | -77.49997 | 38158 ft | 450 kts | 194° |
| 2026-04-22 22:44 | 33.96352 | -77.51209 | 38147 ft | 456 kts | 194° |
| 2026-04-22 22:45 | 33.90079 | -77.52427 | 38144 ft | 461 kts | 194° |
| 2026-04-22 22:45 | 33.83717 | -77.53657 | 38150 ft | 463 kts | 194° |
| 2026-04-22 22:46 | 33.77345 | -77.54888 | 38145 ft | 464 kts | 194° |
| 2026-04-22 22:46 | 33.70994 | -77.56115 | 38152 ft | 464 kts | 194° |
| 2026-04-22 22:47 | 33.64608 | -77.57346 | 38158 ft | 464 kts | 194° |
| 2026-04-22 22:47 | 33.58246 | -77.58583 | 38151 ft | 462 kts | 196° |
| 2026-04-22 22:48 | 33.52077 | -77.60533 | 38157 ft | 457 kts | 202° |
| 2026-04-22 22:48 | 33.46020 | -77.62750 | 38153 ft | 455 kts | 202° |
| 2026-04-22 22:49 | 33.39953 | -77.64940 | 38153 ft | 454 kts | 202° |
| 2026-04-22 22:49 | 33.33929 | -77.67060 | 38157 ft | 453 kts | 201° |
| 2026-04-22 22:50 | 33.27863 | -77.69174 | 38155 ft | 453 kts | 201° |
| 2026-04-22 22:50 | 33.21801 | -77.71285 | 38154 ft | 452 kts | 201° |
| 2026-04-22 22:51 | 33.15809 | -77.73366 | 38155 ft | 451 kts | 201° |
| 2026-04-22 22:51 | 33.09777 | -77.75460 | 38152 ft | 450 kts | 202° |
| 2026-04-22 22:52 | 33.03757 | -77.77548 | 38155 ft | 449 kts | 202° |
| 2026-04-22 22:52 | 32.97803 | -77.79612 | 38160 ft | 448 kts | 202° |
| 2026-04-22 22:53 | 32.91800 | -77.81687 | 38156 ft | 448 kts | 202° |
| 2026-04-22 22:53 | 32.85804 | -77.83756 | 38157 ft | 447 kts | 202° |
| 2026-04-22 22:54 | 32.79865 | -77.85805 | 38160 ft | 446 kts | 202° |
| 2026-04-22 22:54 | 32.74863 | -77.87528 | 38156 ft | 446 kts | 202° |
| 2026-04-22 22:55 | 32.68936 | -77.89567 | 38160 ft | 445 kts | 202° |
| 2026-04-22 22:55 | 32.59981 | -77.92539 | 38155 ft | 445 kts | 201° |
| 2026-04-22 22:56 | 32.54031 | -77.94449 | 38162 ft | 445 kts | 201° |
| 2026-04-22 22:56 | 32.48068 | -77.96369 | 38154 ft | 444 kts | 201° |
| 2026-04-22 22:57 | 32.42087 | -77.98299 | 38164 ft | 444 kts | 201° |
| 2026-04-22 22:57 | 32.36176 | -78.00208 | 38167 ft | 443 kts | 201° |
| 2026-04-22 22:58 | 32.30225 | -78.02127 | 38167 ft | 443 kts | 201° |
| 2026-04-22 22:58 | 32.24280 | -78.04043 | 38169 ft | 442 kts | 201° |
| 2026-04-22 22:59 | 32.18367 | -78.05942 | 38170 ft | 442 kts | 201° |
| 2026-04-22 22:59 | 32.12423 | -78.07853 | 38166 ft | 442 kts | 201° |
| 2026-04-22 23:00 | 32.06460 | -78.09766 | 38165 ft | 442 kts | 201° |
| 2026-04-22 23:00 | 32.00559 | -78.11656 | 38170 ft | 442 kts | 201° |
| 2026-04-22 23:01 | 31.94621 | -78.13556 | 38176 ft | 442 kts | 201° |
| 2026-04-22 23:01 | 31.88673 | -78.15456 | 38176 ft | 442 kts | 201° |
| 2026-04-22 23:02 | 31.82731 | -78.17351 | 38175 ft | 442 kts | 201° |
| 2026-04-22 23:02 | 31.76780 | -78.19247 | 38174 ft | 442 kts | 201° |
| 2026-04-22 23:03 | 31.70863 | -78.21129 | 38176 ft | 442 kts | 201° |
| 2026-04-22 23:03 | 31.64915 | -78.23020 | 38175 ft | 443 kts | 201° |
| 2026-04-22 23:04 | 31.58959 | -78.24913 | 38179 ft | 442 kts | 201° |
| 2026-04-22 23:04 | 31.53048 | -78.26785 | 38174 ft | 443 kts | 201° |
| 2026-04-22 23:05 | 31.47093 | -78.28667 | 38173 ft | 442 kts | 202° |
| 2026-04-22 23:05 | 31.41169 | -78.30617 | 38177 ft | 441 kts | 202° |
| 2026-04-22 23:06 | 31.35249 | -78.32617 | 38172 ft | 442 kts | 203° |
| 2026-04-22 23:06 | 31.29376 | -78.34597 | 38177 ft | 442 kts | 202° |
| 2026-04-22 23:07 | 31.23460 | -78.36576 | 38174 ft | 442 kts | 202° |
| 2026-04-22 23:07 | 31.17575 | -78.38536 | 38178 ft | 441 kts | 202° |
| 2026-04-22 23:08 | 31.11666 | -78.40506 | 38188 ft | 441 kts | 203° |
| 2026-04-22 23:08 | 31.05771 | -78.42468 | 38197 ft | 441 kts | 203° |
| 2026-04-22 23:09 | 30.99863 | -78.44431 | 38194 ft | 440 kts | 203° |
| 2026-04-22 23:09 | 30.93987 | -78.46381 | 38193 ft | 440 kts | 203° |
| 2026-04-22 23:10 | 30.88089 | -78.48338 | 38193 ft | 440 kts | 203° |
| 2026-04-22 23:10 | 30.82184 | -78.50292 | 38197 ft | 439 kts | 203° |
| 2026-04-22 23:11 | 30.76341 | -78.52224 | 38193 ft | 439 kts | 203° |
| 2026-04-22 23:11 | 30.70465 | -78.54166 | 38198 ft | 438 kts | 203° |
| 2026-04-22 23:12 | 30.64626 | -78.56092 | 38193 ft | 438 kts | 203° |
| 2026-04-22 23:12 | 30.58792 | -78.58013 | 38193 ft | 438 kts | 203° |
| 2026-04-22 23:13 | 30.52932 | -78.59940 | 38194 ft | 437 kts | 203° |
| 2026-04-22 23:13 | 30.47090 | -78.61861 | 38194 ft | 437 kts | 204° |
| 2026-04-22 23:14 | 30.41244 | -78.63780 | 38195 ft | 437 kts | 204° |
| 2026-04-22 23:14 | 30.35363 | -78.65707 | 38195 ft | 438 kts | 204° |
| 2026-04-22 23:15 | 30.29486 | -78.67633 | 38195 ft | 439 kts | 204° |
| 2026-04-22 23:15 | 30.23636 | -78.69546 | 38196 ft | 439 kts | 204° |
| 2026-04-22 23:16 | 30.17749 | -78.71469 | 38189 ft | 439 kts | 204° |
| 2026-04-22 23:16 | 30.11869 | -78.73391 | 38185 ft | 439 kts | 204° |
| 2026-04-22 23:17 | 30.06014 | -78.75305 | 38184 ft | 439 kts | 204° |
| 2026-04-22 23:17 | 30.00124 | -78.77227 | 38183 ft | 439 kts | 204° |
| 2026-04-22 23:18 | 29.94243 | -78.79144 | 38187 ft | 438 kts | 204° |
| 2026-04-22 23:18 | 29.88410 | -78.81044 | 38182 ft | 438 kts | 204° |
| 2026-04-22 23:19 | 29.82507 | -78.82965 | 38184 ft | 438 kts | 204° |
| 2026-04-22 23:19 | 29.76628 | -78.84711 | 38176 ft | 445 kts | 198° |
| 2026-04-22 23:20 | 29.70436 | -78.85591 | 38182 ft | 450 kts | 194° |
| 2026-04-22 23:20 | 29.64190 | -78.86299 | 38185 ft | 450 kts | 194° |
| 2026-04-22 23:21 | 29.57965 | -78.87063 | 38185 ft | 449 kts | 195° |
| 2026-04-22 23:21 | 29.51780 | -78.87878 | 38186 ft | 450 kts | 195° |
| 2026-04-22 23:22 | 29.45557 | -78.88716 | 38185 ft | 450 kts | 195° |
| 2026-04-22 23:22 | 29.39334 | -78.89554 | 38185 ft | 450 kts | 195° |
| 2026-04-22 23:23 | 29.33140 | -78.90384 | 38187 ft | 450 kts | 195° |
| 2026-04-22 23:23 | 29.26904 | -78.91219 | 38182 ft | 450 kts | 195° |
| 2026-04-22 23:24 | 29.20672 | -78.92053 | 38184 ft | 450 kts | 195° |
| 2026-04-22 23:24 | 29.14499 | -78.92876 | 38184 ft | 450 kts | 195° |
| 2026-04-22 23:25 | 29.08273 | -78.93706 | 38186 ft | 449 kts | 195° |
| 2026-04-22 23:25 | 29.02044 | -78.94536 | 38185 ft | 449 kts | 195° |
| 2026-04-22 23:26 | 28.95823 | -78.95363 | 38184 ft | 449 kts | 195° |
| 2026-04-22 23:26 | 28.89649 | -78.96184 | 38184 ft | 449 kts | 195° |
| 2026-04-22 23:27 | 28.83437 | -78.97008 | 38185 ft | 449 kts | 195° |
| 2026-04-22 23:27 | 28.77218 | -78.97832 | 38184 ft | 450 kts | 195° |
| 2026-04-22 23:28 | 28.70986 | -78.98657 | 38182 ft | 450 kts | 195° |
| 2026-04-22 23:28 | 28.64756 | -78.99481 | 38187 ft | 450 kts | 195° |
| 2026-04-22 23:29 | 28.58557 | -79.00299 | 38180 ft | 451 kts | 195° |
| 2026-04-22 23:29 | 28.52307 | -79.01124 | 38174 ft | 451 kts | 195° |
| 2026-04-22 23:30 | 28.46107 | -79.01940 | 38176 ft | 450 kts | 195° |
| 2026-04-22 23:30 | 28.39861 | -79.02762 | 38176 ft | 451 kts | 195° |
| 2026-04-22 23:31 | 28.33646 | -79.03646 | 38171 ft | 444 kts | 202° |
| 2026-04-22 23:31 | 28.27862 | -79.05661 | 38184 ft | 435 kts | 208° |
| 2026-04-22 23:32 | 28.22156 | -79.07923 | 38187 ft | 434 kts | 208° |
| 2026-04-22 23:32 | 28.16416 | -79.10143 | 38187 ft | 436 kts | 207° |
| 2026-04-22 23:33 | 28.10652 | -79.12312 | 38185 ft | 436 kts | 207° |
| 2026-04-22 23:33 | 28.04877 | -79.14460 | 38184 ft | 436 kts | 207° |
| 2026-04-22 23:34 | 27.99146 | -79.16585 | 38188 ft | 436 kts | 207° |
| 2026-04-22 23:34 | 27.93409 | -79.18706 | 38173 ft | 427 kts | 207° |
| 2026-04-22 23:35 | 27.87795 | -79.20784 | 38177 ft | 421 kts | 208° |
| 2026-04-22 23:35 | 27.85043 | -79.21805 | 38036 ft | 423 kts | 208° |
| 2026-04-22 23:35 | 27.82240 | -79.22847 | 37748 ft | 419 kts | 208° |
| 2026-04-22 23:36 | 27.79485 | -79.23865 | 37321 ft | 414 kts | 207° |
| 2026-04-22 23:36 | 27.76796 | -79.24857 | 36955 ft | 409 kts | 207° |
| 2026-04-22 23:36 | 27.74104 | -79.25849 | 36567 ft | 404 kts | 207° |
| 2026-04-22 23:36 | 27.71469 | -79.26822 | 36178 ft | 400 kts | 207° |
| 2026-04-22 23:37 | 27.68829 | -79.27797 | 35788 ft | 397 kts | 207° |
| 2026-04-22 23:37 | 27.66207 | -79.28767 | 35305 ft | 396 kts | 207° |
| 2026-04-22 23:37 | 27.63610 | -79.29726 | 35000 ft | 391 kts | 207° |
| 2026-04-22 23:37 | 27.61026 | -79.30680 | 34588 ft | 388 kts | 207° |
| 2026-04-22 23:38 | 27.58469 | -79.31622 | 34209 ft | 385 kts | 207° |
| 2026-04-22 23:38 | 27.55937 | -79.32556 | 33815 ft | 382 kts | 207° |
| 2026-04-22 23:38 | 27.53420 | -79.33483 | 33432 ft | 379 kts | 207° |
| 2026-04-22 23:38 | 27.50914 | -79.34406 | 33049 ft | 376 kts | 207° |
| 2026-04-22 23:39 | 27.48458 | -79.35310 | 32675 ft | 374 kts | 207° |
| 2026-04-22 23:39 | 27.45983 | -79.36221 | 32293 ft | 372 kts | 207° |
| 2026-04-22 23:39 | 27.43527 | -79.37124 | 31914 ft | 369 kts | 207° |
| 2026-04-22 23:39 | 27.41091 | -79.38020 | 31541 ft | 367 kts | 207° |
| 2026-04-22 23:40 | 27.38687 | -79.38903 | 31172 ft | 365 kts | 207° |
| 2026-04-22 23:40 | 27.36278 | -79.39789 | 30805 ft | 363 kts | 207° |
| 2026-04-22 23:40 | 27.35034 | -79.40245 | 30610 ft | 362 kts | 207° |
| 2026-04-22 23:40 | 27.32641 | -79.41123 | 30250 ft | 360 kts | 207° |
| 2026-04-22 23:41 | 27.30265 | -79.41993 | 29886 ft | 358 kts | 206° |
| 2026-04-22 23:41 | 27.27887 | -79.42864 | 29479 ft | 358 kts | 206° |
| 2026-04-22 23:41 | 27.25521 | -79.43729 | 29093 ft | 357 kts | 206° |
| 2026-04-22 23:41 | 27.23155 | -79.44595 | 28708 ft | 356 kts | 206° |
| 2026-04-22 23:42 | 27.20829 | -79.45446 | 28330 ft | 355 kts | 206° |
| 2026-04-22 23:42 | 27.18483 | -79.46305 | 27951 ft | 354 kts | 206° |
| 2026-04-22 23:42 | 27.16143 | -79.47162 | 27573 ft | 353 kts | 205° |
| 2026-04-22 23:42 | 27.13802 | -79.48018 | 27196 ft | 352 kts | 205° |
| 2026-04-22 23:43 | 27.11474 | -79.48869 | 26820 ft | 352 kts | 205° |
| 2026-04-22 23:43 | 27.09147 | -79.49718 | 26444 ft | 351 kts | 205° |
| 2026-04-22 23:43 | 27.06856 | -79.50554 | 26074 ft | 350 kts | 205° |
| 2026-04-22 23:43 | 27.04535 | -79.51401 | 25683 ft | 350 kts | 204° |
| 2026-04-22 23:44 | 27.02208 | -79.52250 | 25225 ft | 352 kts | 204° |
| 2026-04-22 23:44 | 26.99868 | -79.53102 | 24850 ft | 352 kts | 204° |
| 2026-04-22 23:44 | 26.97537 | -79.53951 | 24467 ft | 352 kts | 204° |
| 2026-04-22 23:44 | 26.95207 | -79.54799 | 24094 ft | 351 kts | 203° |
| 2026-04-22 23:45 | 26.92910 | -79.55636 | 23720 ft | 351 kts | 203° |
| 2026-04-22 23:45 | 26.90587 | -79.56481 | 23350 ft | 350 kts | 203° |
| 2026-04-22 23:45 | 26.88260 | -79.57326 | 22975 ft | 350 kts | 203° |
| 2026-04-22 23:45 | 26.85941 | -79.58164 | 22591 ft | 350 kts | 202° |
| 2026-04-22 23:46 | 26.83619 | -79.59001 | 22211 ft | 349 kts | 202° |
| 2026-04-22 23:46 | 26.81334 | -79.59823 | 21844 ft | 349 kts | 202° |
| 2026-04-22 23:46 | 26.79027 | -79.60655 | 21474 ft | 348 kts | 202° |
| 2026-04-22 23:46 | 26.76724 | -79.61485 | 21105 ft | 347 kts | 202° |
| 2026-04-22 23:47 | 26.74427 | -79.62312 | 20741 ft | 346 kts | 202° |
| 2026-04-22 23:47 | 26.72139 | -79.63136 | 20368 ft | 345 kts | 202° |
| 2026-04-22 23:47 | 26.70626 | -79.63681 | 20135 ft | 344 kts | 202° |
| 2026-04-22 23:47 | 26.68336 | -79.64506 | 19772 ft | 343 kts | 202° |
| 2026-04-22 23:48 | 26.66070 | -79.65321 | 19414 ft | 342 kts | 202° |
| 2026-04-22 23:48 | 26.63808 | -79.66134 | 19056 ft | 341 kts | 202° |
| 2026-04-22 23:48 | 26.61554 | -79.66941 | 18698 ft | 340 kts | 201° |
| 2026-04-22 23:48 | 26.59295 | -79.67734 | 18340 ft | 339 kts | 201° |
| 2026-04-22 23:49 | 26.57044 | -79.68520 | 17980 ft | 338 kts | 201° |
| 2026-04-22 23:49 | 26.54832 | -79.69291 | 17619 ft | 335 kts | 200° |
| 2026-04-22 23:49 | 26.52581 | -79.70062 | 17268 ft | 342 kts | 200° |
| 2026-04-22 23:49 | 26.50280 | -79.70852 | 16899 ft | 349 kts | 200° |
| 2026-04-22 23:50 | 26.47935 | -79.71661 | 16520 ft | 355 kts | 200° |
| 2026-04-22 23:50 | 26.45686 | -79.72780 | 16135 ft | 356 kts | 217° |
| 2026-04-22 23:50 | 26.43870 | -79.74621 | 15937 ft | 352 kts | 229° |
| 2026-04-22 23:50 | 26.42228 | -79.76653 | 15688 ft | 353 kts | 230° |
| 2026-04-22 23:51 | 26.40588 | -79.78698 | 15440 ft | 354 kts | 229° |
| 2026-04-22 23:51 | 26.38928 | -79.80733 | 15200 ft | 355 kts | 229° |
| 2026-04-22 23:51 | 26.37374 | -79.82865 | 14958 ft | 354 kts | 235° |
| 2026-04-22 23:51 | 26.35982 | -79.85137 | 14728 ft | 355 kts | 237° |
| 2026-04-22 23:52 | 26.34626 | -79.87389 | 14488 ft | 355 kts | 237° |
| 2026-04-22 23:52 | 26.33932 | -79.88522 | 14379 ft | 357 kts | 236° |
| 2026-04-22 23:52 | 26.32516 | -79.90805 | 14140 ft | 357 kts | 236° |
| 2026-04-22 23:52 | 26.31104 | -79.93076 | 13933 ft | 351 kts | 236° |
| 2026-04-22 23:53 | 26.29767 | -79.95252 | 13790 ft | 330 kts | 236° |
| 2026-04-22 23:53 | 26.28498 | -79.97291 | 13660 ft | 311 kts | 236° |
| 2026-04-22 23:53 | 26.27285 | -79.99227 | 13313 ft | 302 kts | 236° |
| 2026-04-22 23:53 | 26.26050 | -80.01076 | 13067 ft | 294 kts | 225° |
| 2026-04-22 23:54 | 26.24396 | -80.02337 | 12878 ft | 295 kts | 202° |
| 2026-04-22 23:54 | 26.23980 | -80.02511 | 12834 ft | 298 kts | 198° |
| 2026-04-22 23:55 | 26.22685 | -80.02866 | 12735 ft | 302 kts | 193° |
| 2026-04-22 23:55 | 26.20606 | -80.03330 | 12516 ft | 306 kts | 192° |
| 2026-04-22 23:55 | 26.18527 | -80.03783 | 12295 ft | 303 kts | 192° |
| 2026-04-22 23:55 | 26.16458 | -80.04238 | 12087 ft | 301 kts | 192° |
| 2026-04-22 23:56 | 26.14411 | -80.04696 | 11881 ft | 299 kts | 192° |
| 2026-04-22 23:56 | 26.12393 | -80.05153 | 11683 ft | 298 kts | 192° |
| 2026-04-22 23:56 | 26.10366 | -80.05615 | 11483 ft | 297 kts | 192° |
| 2026-04-22 23:56 | 26.08334 | -80.06079 | 11283 ft | 297 kts | 192° |
| 2026-04-22 23:57 | 26.06661 | -80.06463 | 11112 ft | 297 kts | 192° |
| 2026-04-22 23:57 | 26.04636 | -80.06974 | 10810 ft | 299 kts | 193° |
| 2026-04-22 23:57 | 26.02634 | -80.07501 | 10476 ft | 298 kts | 193° |
| 2026-04-22 23:57 | 26.00596 | -80.08039 | 10214 ft | 296 kts | 192° |
| 2026-04-22 23:58 | 25.98637 | -80.08553 | 9948 ft | 290 kts | 192° |
| 2026-04-22 23:58 | 25.96700 | -80.09058 | 9687 ft | 279 kts | 192° |
| 2026-04-22 23:58 | 25.94826 | -80.09544 | 9454 ft | 274 kts | 192° |
| 2026-04-22 23:58 | 25.92991 | -80.10059 | 9223 ft | 273 kts | 199° |
| 2026-04-22 23:59 | 25.91390 | -80.11223 | 9017 ft | 280 kts | 224° |
| 2026-04-22 23:59 | 25.90063 | -80.12827 | 8795 ft | 284 kts | 227° |
| 2026-04-22 23:59 | 25.88784 | -80.14454 | 8545 ft | 282 kts | 232° |
| 2026-04-22 23:59 | 25.87964 | -80.16408 | 8293 ft | 281 kts | 257° |
| 2026-04-23 00:00 | 25.87756 | -80.20762 | 7730 ft | 285 kts | 269° |
| 2026-04-23 00:00 | 25.87715 | -80.22959 | 7374 ft | 285 kts | 268° |
| 2026-04-23 00:00 | 25.87659 | -80.25158 | 7003 ft | 283 kts | 268° |
| 2026-04-23 00:01 | 25.87596 | -80.27324 | 6641 ft | 279 kts | 268° |
| 2026-04-23 00:01 | 25.87789 | -80.29446 | 6260 ft | 276 kts | 291° |
| 2026-04-23 00:01 | 25.88617 | -80.31348 | 5948 ft | 273 kts | 300° |
| 2026-04-23 00:01 | 25.89541 | -80.33201 | 5603 ft | 274 kts | 301° |
| 2026-04-23 00:02 | 25.90463 | -80.35049 | 5254 ft | 273 kts | 300° |
| 2026-04-23 00:02 | 25.91377 | -80.36905 | 4903 ft | 272 kts | 300° |
| 2026-04-23 00:02 | 25.92239 | -80.38673 | 4774 ft | 253 kts | 300° |
| 2026-04-23 00:02 | 25.93047 | -80.40332 | 4615 ft | 235 kts | 300° |
| 2026-04-23 00:03 | 25.93700 | -80.41932 | 4462 ft | 221 kts | 282° |
| 2026-04-23 00:03 | 25.93806 | -80.43624 | 4109 ft | 219 kts | 269° |
| 2026-04-23 00:03 | 25.93766 | -80.45322 | 4057 ft | 222 kts | 268° |
| 2026-04-23 00:03 | 25.93722 | -80.47033 | 4002 ft | 220 kts | 268° |
| 2026-04-23 00:04 | 25.93675 | -80.48741 | 3806 ft | 221 kts | 272° |
| 2026-04-23 00:04 | 25.94071 | -80.50354 | 3692 ft | 212 kts | 295° |
| 2026-04-23 00:04 | 25.94619 | -80.51849 | 3616 ft | 213 kts | 294° |
| 2026-04-23 00:04 | 25.95174 | -80.53386 | 3598 ft | 216 kts | 294° |
| 2026-04-23 00:05 | 25.95731 | -80.54938 | 3563 ft | 215 kts | 294° |
| 2026-04-23 00:05 | 25.96136 | -80.56523 | 3516 ft | 214 kts | 267° |
| 2026-04-23 00:05 | 25.95634 | -80.57979 | 3540 ft | 210 kts | 223° |
| 2026-04-23 00:05 | 25.94419 | -80.58656 | 3534 ft | 188 kts | 176° |
| 2026-04-23 00:06 | 25.93308 | -80.58204 | 3522 ft | 168 kts | 128° |
| 2026-04-23 00:06 | 25.92634 | -80.57149 | 3544 ft | 167 kts | 118° |
| 2026-04-23 00:06 | 25.92145 | -80.56216 | 3558 ft | 169 kts | 116° |
| 2026-04-23 00:06 | 25.91566 | -80.55057 | 3528 ft | 173 kts | 116° |
| 2026-04-23 00:07 | 25.90990 | -80.53896 | 3478 ft | 170 kts | 116° |
| 2026-04-23 00:07 | 25.90447 | -80.52753 | 3457 ft | 165 kts | 113° |
| 2026-04-23 00:07 | 25.89946 | -80.51605 | 3415 ft | 165 kts | 113° |
| 2026-04-23 00:07 | 25.89447 | -80.50453 | 3360 ft | 167 kts | 113° |
| 2026-04-23 00:08 | 25.88948 | -80.49295 | 3309 ft | 167 kts | 111° |
| 2026-04-23 00:08 | 25.88563 | -80.48077 | 3236 ft | 168 kts | 106° |
| 2026-04-23 00:08 | 25.88195 | -80.46840 | 3143 ft | 169 kts | 106° |
| 2026-04-23 00:08 | 25.87768 | -80.45643 | 3061 ft | 165 kts | 114° |
| 2026-04-23 00:09 | 25.87212 | -80.44521 | 2874 ft | 167 kts | 116° |
| 2026-04-23 00:09 | 25.86641 | -80.43404 | 2663 ft | 166 kts | 116° |
| 2026-04-23 00:09 | 25.86077 | -80.42300 | 2454 ft | 165 kts | 117° |
| 2026-04-23 00:09 | 25.85519 | -80.41207 | 2225 ft | 156 kts | 117° |
| 2026-04-23 00:10 | 25.85006 | -80.40201 | 2038 ft | 147 kts | 116° |
| 2026-04-23 00:10 | 25.84514 | -80.39236 | 1834 ft | 140 kts | 116° |
| 2026-04-23 00:10 | 25.84039 | -80.38305 | 1663 ft | 140 kts | 116° |
| 2026-04-23 00:10 | 25.83556 | -80.37355 | 1478 ft | 141 kts | 117° |
| 2026-04-23 00:11 | 25.83073 | -80.36422 | 1266 ft | 142 kts | 117° |
| 2026-04-23 00:11 | 25.82561 | -80.35458 | 1040 ft | 139 kts | 118° |
| 2026-04-23 00:11 | 25.82098 | -80.34563 | 878 ft | 135 kts | 116° |
| 2026-04-23 00:11 | 25.81643 | -80.33624 | 625 ft | 144 kts | 116° |
| 2026-04-23 00:12 | 25.81161 | -80.32643 | 511 ft | 138 kts | 117° |
| 2026-04-23 00:12 | 25.80677 | -80.31706 | 334 ft | 141 kts | 118° |
| 2026-04-23 00:12 | 25.80192 | -80.30772 | 160 ft | 140 kts | 117° |
| 2026-04-23 00:12 | 25.79729 | -80.29839 | 22 ft | 132 kts | 118° |
| 2026-04-23 00:13 | 25.79368 | -80.29127 | 14 ft | 107 kts | 120° |
| 2026-04-23 00:13 | 25.79108 | -80.28578 | 14 ft | 55 kts | 101° |
| 2026-04-23 00:13 | 25.79131 | -80.28463 | 15 ft | 0 kts | 36° |
| 2026-04-23 00:14 | 25.79148 | -80.28464 | 16 ft | 5 kts | 330° |
| 2026-04-23 00:14 | 25.79170 | -80.28495 | 15 ft | 5 kts | 307° |
| 2026-04-23 00:15 | 25.79190 | -80.28529 | 15 ft | 5 kts | 302° |
| 2026-04-23 00:15 | 25.79209 | -80.28564 | 15 ft | 5 kts | 300° |
| 2026-04-23 00:15 | 25.79227 | -80.28601 | 15 ft | 6 kts | 297° |
| 2026-04-23 00:15 | 25.79245 | -80.28642 | 14 ft | 7 kts | 295° |
| 2026-04-23 00:16 | 25.79282 | -80.28728 | 13 ft | 15 kts | 300° |
| 2026-04-23 00:16 | 25.79352 | -80.28794 | 13 ft | 13 kts | 352° |
| 2026-04-23 00:16 | 25.79438 | -80.28800 | 15 ft | 12 kts | 358° |
| 2026-04-23 00:16 | 25.79522 | -80.28803 | 18 ft | 12 kts | 358° |
| 2026-04-23 00:17 | 25.79603 | -80.28806 | 19 ft | 6 kts | 358° |
| 2026-04-23 00:17 | 25.79644 | -80.28808 | 19 ft | 6 kts | 357° |
| 2026-04-23 00:17 | 25.79687 | -80.28811 | 19 ft | 7 kts | 356° |
| 2026-04-23 00:17 | 25.79750 | -80.28816 | 19 ft | 11 kts | 356° |
| 2026-04-23 00:18 | 25.79839 | -80.28823 | 20 ft | 14 kts | 355° |
| 2026-04-23 00:18 | 25.79933 | -80.28786 | 21 ft | 16 kts | 69° |
| 2026-04-23 00:18 | 25.79941 | -80.28656 | 19 ft | 19 kts | 84° |
| 2026-04-23 00:18 | 25.79945 | -80.28494 | 16 ft | 22 kts | 88° |
| 2026-04-23 00:19 | 25.79953 | -80.28321 | 14 ft | 22 kts | 87° |
| 2026-04-23 00:19 | 25.79960 | -80.28155 | 13 ft | 21 kts | 87° |
| 2026-04-23 00:19 | 25.79966 | -80.27993 | 11 ft | 21 kts | 86° |
| 2026-04-23 00:19 | 25.79923 | -80.27889 | 13 ft | 11 kts | 173° |
| 2026-04-23 00:20 | 25.79873 | -80.27886 | 14 ft | 6 kts | 178° |
| 2026-04-23 00:20 | 25.79827 | -80.27883 | 15 ft | 7 kts | 178° |
| 2026-04-23 00:20 | 25.79780 | -80.27881 | 16 ft | 2 kts | 178° |
| 2026-04-23 00:20 | 25.79779 | -80.27880 | 16 ft | 0 kts | 178° |